sensor_id;sensor_type;location;lat;lon;timestamp;pressure;altitude;pressure_sealevel;temperature;humidity
68871;BME280;55906;52.278;6.808;2023-02-18T00:00:26;102007.38;;;10.22;92.32
68871;BME280;55906;52.278;6.808;2023-02-18T00:02:53;102002.56;;;10.13;92.79
68871;BME280;55906;52.278;6.808;2023-02-18T00:05:22;102007.94;;;10.16;93.06
68871;BME280;55906;52.278;6.808;2023-02-18T00:07:49;102003.66;;;10.18;92.85
68871;BME280;55906;52.278;6.808;2023-02-18T00:10:16;102000.81;;;10.14;93.36
68871;BME280;55906;52.278;6.808;2023-02-18T00:12:43;102011.28;;;10.12;93.53
68871;BME280;55906;52.278;6.808;2023-02-18T00:15:10;102005.03;;;10.10;94.20
68871;BME280;55906;52.278;6.808;2023-02-18T00:17:37;102007.53;;;10.07;94.35
68871;BME280;55906;52.278;6.808;2023-02-18T00:20:05;102000.69;;;10.11;94.02
68871;BME280;55906;52.278;6.808;2023-02-18T00:22:34;101995.28;;;10.08;94.54
68871;BME280;55906;52.278;6.808;2023-02-18T00:25:00;101991.91;;;10.10;93.76
68871;BME280;55906;52.278;6.808;2023-02-18T00:27:27;101992.72;;;10.09;94.05
68871;BME280;55906;52.278;6.808;2023-02-18T00:29:54;101989.25;;;10.10;94.55
68871;BME280;55906;52.278;6.808;2023-02-18T00:32:20;101990.84;;;10.07;94.57
68871;BME280;55906;52.278;6.808;2023-02-18T00:34:47;101989.19;;;10.09;94.17
68871;BME280;55906;52.278;6.808;2023-02-18T00:37:14;101984.84;;;10.09;94.20
68871;BME280;55906;52.278;6.808;2023-02-18T00:39:42;101983.72;;;10.04;94.30
68871;BME280;55906;52.278;6.808;2023-02-18T00:42:09;101988.16;;;10.05;94.57
68871;BME280;55906;52.278;6.808;2023-02-18T00:44:35;101979.50;;;10.08;94.43
68871;BME280;55906;52.278;6.808;2023-02-18T00:47:02;101973.28;;;10.06;94.59
68871;BME280;55906;52.278;6.808;2023-02-18T00:49:29;101966.28;;;10.06;94.38
68871;BME280;55906;52.278;6.808;2023-02-18T00:51:55;101969.00;;;10.08;94.23
68871;BME280;55906;52.278;6.808;2023-02-18T00:54:22;101977.63;;;10.05;94.57
68871;BME280;55906;52.278;6.808;2023-02-18T00:56:50;101983.88;;;10.07;94.26
68871;BME280;55906;52.278;6.808;2023-02-18T00:59:17;101981.09;;;10.04;94.13
68871;BME280;55906;52.278;6.808;2023-02-18T01:01:43;101971.41;;;10.03;94.51
68871;BME280;55906;52.278;6.808;2023-02-18T01:04:10;101961.16;;;10.09;94.23
68871;BME280;55906;52.278;6.808;2023-02-18T01:06:37;101954.13;;;10.08;93.94
68871;BME280;55906;52.278;6.808;2023-02-18T01:09:04;101949.69;;;10.07;93.89
68871;BME280;55906;52.278;6.808;2023-02-18T01:11:31;101931.22;;;10.06;94.17
68871;BME280;55906;52.278;6.808;2023-02-18T01:13:59;101938.34;;;10.08;94.19
68871;BME280;55906;52.278;6.808;2023-02-18T01:16:25;101943.66;;;10.10;94.04
68871;BME280;55906;52.278;6.808;2023-02-18T01:18:52;101941.94;;;10.10;93.91
68871;BME280;55906;52.278;6.808;2023-02-18T01:21:19;101942.84;;;10.11;93.60
68871;BME280;55906;52.278;6.808;2023-02-18T01:23:45;101952.66;;;10.15;93.73
68871;BME280;55906;52.278;6.808;2023-02-18T01:26:12;101953.69;;;10.18;93.66
68871;BME280;55906;52.278;6.808;2023-02-18T01:28:39;101949.13;;;10.14;93.95
68871;BME280;55906;52.278;6.808;2023-02-18T01:31:09;101945.97;;;10.21;93.59
68871;BME280;55906;52.278;6.808;2023-02-18T01:33:36;101930.88;;;10.17;93.86
68871;BME280;55906;52.278;6.808;2023-02-18T01:36:04;101922.16;;;10.18;94.06
68871;BME280;55906;52.278;6.808;2023-02-18T01:38:31;101922.16;;;10.18;94.15
68871;BME280;55906;52.278;6.808;2023-02-18T01:40:58;101922.97;;;10.17;94.30
68871;BME280;55906;52.278;6.808;2023-02-18T01:43:24;101909.75;;;10.16;94.70
68871;BME280;55906;52.278;6.808;2023-02-18T01:45:58;101922.16;;;10.18;95.13
68871;BME280;55906;52.278;6.808;2023-02-18T01:48:29;101907.44;;;10.22;94.94
68871;BME280;55906;52.278;6.808;2023-02-18T01:51:00;101907.63;;;10.26;94.88
68871;BME280;55906;52.278;6.808;2023-02-18T01:53:31;101907.63;;;10.26;95.20
68871;BME280;55906;52.278;6.808;2023-02-18T01:56:01;101895.38;;;10.27;95.19
68871;BME280;55906;52.278;6.808;2023-02-18T01:58:29;101902.50;;;10.30;95.35
68871;BME280;55906;52.278;6.808;2023-02-18T02:00:55;101900.00;;;10.33;95.32
68871;BME280;55906;52.278;6.808;2023-02-18T02:03:22;101890.53;;;10.36;95.09
68871;BME280;55906;52.278;6.808;2023-02-18T02:05:50;101890.53;;;10.36;95.54
68871;BME280;55906;52.278;6.808;2023-02-18T02:08:17;101884.59;;;10.40;95.31
68871;BME280;55906;52.278;6.808;2023-02-18T02:10:57;101881.19;;;10.43;95.19
68871;BME280;55906;52.278;6.808;2023-02-18T02:13:32;101902.19;;;10.41;95.84
68871;BME280;55906;52.278;6.808;2023-02-18T02:16:06;101871.56;;;10.43;95.73
68871;BME280;55906;52.278;6.808;2023-02-18T02:18:45;101881.31;;;10.46;95.86
68871;BME280;55906;52.278;6.808;2023-02-18T02:24:53;101858.34;;;10.42;96.02
68871;BME280;55906;52.278;6.808;2023-02-18T02:27:28;101850.41;;;10.40;96.28
68871;BME280;55906;52.278;6.808;2023-02-18T02:30:35;101830.25;;;10.41;95.67
68871;BME280;55906;52.278;6.808;2023-02-18T02:33:47;101830.16;;;10.39;95.65
68871;BME280;55906;52.278;6.808;2023-02-18T02:36:22;101825.97;;;10.43;95.48
68871;BME280;55906;52.278;6.808;2023-02-18T02:38:55;101825.78;;;10.40;95.33
68871;BME280;55906;52.278;6.808;2023-02-18T02:41:36;101820.75;;;10.44;95.31
68871;BME280;55906;52.278;6.808;2023-02-18T02:44:18;101822.44;;;10.42;95.17
68871;BME280;55906;52.278;6.808;2023-02-18T02:46:46;101811.75;;;10.39;95.25
68871;BME280;55906;52.278;6.808;2023-02-18T02:49:23;101814.53;;;10.42;95.60
68871;BME280;55906;52.278;6.808;2023-02-18T02:52:00;101814.47;;;10.41;95.05
68871;BME280;55906;52.278;6.808;2023-02-18T02:54:29;101820.63;;;10.41;95.19
68871;BME280;55906;52.278;6.808;2023-02-18T02:57:07;101810.09;;;10.41;95.59
68871;BME280;55906;52.278;6.808;2023-02-18T02:59:36;101807.59;;;10.44;95.00
68871;BME280;55906;52.278;6.808;2023-02-18T03:02:16;101808.44;;;10.43;95.34
68871;BME280;55906;52.278;6.808;2023-02-18T03:05:02;101803.25;;;10.45;95.03
68871;BME280;55906;52.278;6.808;2023-02-18T03:08:02;101805.75;;;10.42;95.10
68871;BME280;55906;52.278;6.808;2023-02-18T03:10:41;101786.50;;;10.43;95.31
68871;BME280;55906;52.278;6.808;2023-02-18T03:13:16;101785.72;;;10.45;95.20
68871;BME280;55906;52.278;6.808;2023-02-18T03:15:49;101778.66;;;10.44;95.39
68871;BME280;55906;52.278;6.808;2023-02-18T03:18:23;101762.81;;;10.43;95.64
68871;BME280;55906;52.278;6.808;2023-02-18T03:20:54;101766.28;;;10.42;95.39
68871;BME280;55906;52.278;6.808;2023-02-18T03:23:27;101746.09;;;10.41;95.30
68871;BME280;55906;52.278;6.808;2023-02-18T03:25:58;101742.56;;;10.40;95.70
68871;BME280;55906;52.278;6.808;2023-02-18T03:28:28;101748.13;;;10.48;94.98
68871;BME280;55906;52.278;6.808;2023-02-18T03:31:00;101742.75;;;10.45;95.31
68871;BME280;55906;52.278;6.808;2023-02-18T03:33:31;101748.91;;;10.45;95.48
68871;BME280;55906;52.278;6.808;2023-02-18T03:36:01;101739.34;;;10.47;95.27
68871;BME280;55906;52.278;6.808;2023-02-18T03:38:34;101726.13;;;10.46;95.03
68871;BME280;55906;52.278;6.808;2023-02-18T03:41:03;101725.22;;;10.45;95.23
68871;BME280;55906;52.278;6.808;2023-02-18T03:43:31;101737.41;;;10.43;95.25
68871;BME280;55906;52.278;6.808;2023-02-18T03:45:58;101724.31;;;10.45;95.24
68871;BME280;55906;52.278;6.808;2023-02-18T03:48:25;101732.16;;;10.43;95.06
68871;BME280;55906;52.278;6.808;2023-02-18T03:50:51;101728.63;;;10.43;95.18
68871;BME280;55906;52.278;6.808;2023-02-18T03:53:18;101716.50;;;10.46;95.31
68871;BME280;55906;52.278;6.808;2023-02-18T03:55:46;101717.44;;;10.48;95.06
68871;BME280;55906;52.278;6.808;2023-02-18T03:58:12;101705.06;;;10.46;95.40
68871;BME280;55906;52.278;6.808;2023-02-18T04:00:39;101704.34;;;10.50;95.15
68871;BME280;55906;52.278;6.808;2023-02-18T04:03:06;101702.56;;;10.49;95.54
68871;BME280;55906;52.278;6.808;2023-02-18T04:05:32;101699.94;;;10.49;95.45
68871;BME280;55906;52.278;6.808;2023-02-18T04:07:59;101693.72;;;10.47;96.16
68871;BME280;55906;52.278;6.808;2023-02-18T04:10:25;101686.72;;;10.47;96.08
68871;BME280;55906;52.278;6.808;2023-02-18T04:12:53;101679.91;;;10.52;96.04
68871;BME280;55906;52.278;6.808;2023-02-18T04:15:20;101679.91;;;10.52;96.70
68871;BME280;55906;52.278;6.808;2023-02-18T04:17:46;101672.91;;;10.53;97.13
68871;BME280;55906;52.278;6.808;2023-02-18T04:20:13;101679.00;;;10.52;96.50
68871;BME280;55906;52.278;6.808;2023-02-18T04:22:40;101671.13;;;10.52;97.13
68871;BME280;55906;52.278;6.808;2023-02-18T04:25:07;101665.84;;;10.52;97.47
68871;BME280;55906;52.278;6.808;2023-02-18T04:27:34;101667.66;;;10.53;98.06
68871;BME280;55906;52.278;6.808;2023-02-18T04:30:03;101669.38;;;10.52;99.13
68871;BME280;55906;52.278;6.808;2023-02-18T04:32:29;101664.06;;;10.51;99.42
68871;BME280;55906;52.278;6.808;2023-02-18T04:34:56;101664.06;;;10.51;99.39
68871;BME280;55906;52.278;6.808;2023-02-18T04:37:22;101649.13;;;10.50;99.85
68871;BME280;55906;52.278;6.808;2023-02-18T04:39:49;101643.00;;;10.51;100.00
68871;BME280;55906;52.278;6.808;2023-02-18T04:42:16;101640.44;;;10.52;100.00
68871;BME280;55906;52.278;6.808;2023-02-18T04:44:43;101635.13;;;10.51;100.00
68871;BME280;55906;52.278;6.808;2023-02-18T04:47:11;101635.19;;;10.52;100.00
68871;BME280;55906;52.278;6.808;2023-02-18T04:49:37;101633.44;;;10.53;100.00
68871;BME280;55906;52.278;6.808;2023-02-18T04:52:04;101623.75;;;10.52;100.00
68871;BME280;55906;52.278;6.808;2023-02-18T04:54:31;101628.13;;;10.51;100.00
68871;BME280;55906;52.278;6.808;2023-02-18T04:56:57;101623.81;;;10.53;100.00
68871;BME280;55906;52.278;6.808;2023-02-18T04:59:24;101622.97;;;10.54;100.00
68871;BME280;55906;52.278;6.808;2023-02-18T05:01:51;101609.81;;;10.54;100.00
68871;BME280;55906;52.278;6.808;2023-02-18T05:04:19;101600.19;;;10.55;100.00
68871;BME280;55906;52.278;6.808;2023-02-18T05:06:46;101601.09;;;10.55;100.00
68871;BME280;55906;52.278;6.808;2023-02-18T05:09:12;101599.47;;;10.59;100.00
68871;BME280;55906;52.278;6.808;2023-02-18T05:11:39;101588.13;;;10.60;100.00
68871;BME280;55906;52.278;6.808;2023-02-18T05:14:06;101593.31;;;10.58;100.00
68871;BME280;55906;52.278;6.808;2023-02-18T05:16:33;101583.81;;;10.62;100.00
68871;BME280;55906;52.278;6.808;2023-02-18T05:18:59;101581.16;;;10.62;100.00
68871;BME280;55906;52.278;6.808;2023-02-18T05:21:27;101571.72;;;10.67;100.00
68871;BME280;55906;52.278;6.808;2023-02-18T05:23:54;101558.56;;;10.67;100.00
68871;BME280;55906;52.278;6.808;2023-02-18T05:26:21;101548.97;;;10.69;100.00
68871;BME280;55906;52.278;6.808;2023-02-18T05:28:48;101543.88;;;10.74;100.00
68871;BME280;55906;52.278;6.808;2023-02-18T05:31:14;101544.72;;;10.73;100.00
68871;BME280;55906;52.278;6.808;2023-02-18T05:33:41;101545.44;;;10.69;100.00
68871;BME280;55906;52.278;6.808;2023-02-18T05:36:08;101541.16;;;10.71;100.00
68871;BME280;55906;52.278;6.808;2023-02-18T05:38:35;101545.63;;;10.73;100.00
68871;BME280;55906;52.278;6.808;2023-02-18T05:41:02;101532.50;;;10.75;100.00
68871;BME280;55906;52.278;6.808;2023-02-18T05:43:29;101527.25;;;10.75;100.00
68871;BME280;55906;52.278;6.808;2023-02-18T05:46:16;101521.09;;;10.74;100.00
68871;BME280;55906;52.278;6.808;2023-02-18T05:48:42;101522.16;;;10.79;100.00
68871;BME280;55906;52.278;6.808;2023-02-18T05:51:09;101510.69;;;10.77;100.00
68871;BME280;55906;52.278;6.808;2023-02-18T05:53:37;101509.00;;;10.79;100.00
68871;BME280;55906;52.278;6.808;2023-02-18T05:56:04;101510.78;;;10.80;100.00
68871;BME280;55906;52.278;6.808;2023-02-18T05:58:31;101516.03;;;10.80;100.00
68871;BME280;55906;52.278;6.808;2023-02-18T06:00:58;101507.19;;;10.78;100.00
68871;BME280;55906;52.278;6.808;2023-02-18T06:03:25;101509.88;;;10.80;100.00
68871;BME280;55906;52.278;6.808;2023-02-18T06:05:51;101496.69;;;10.78;100.00
68871;BME280;55906;52.278;6.808;2023-02-18T06:08:18;101505.53;;;10.80;100.00
68871;BME280;55906;52.278;6.808;2023-02-18T06:10:47;101504.69;;;10.81;100.00
68871;BME280;55906;52.278;6.808;2023-02-18T06:13:13;101505.53;;;10.80;100.00
68871;BME280;55906;52.278;6.808;2023-02-18T06:15:40;101503.78;;;10.81;100.00
68871;BME280;55906;52.278;6.808;2023-02-18T06:18:07;101511.63;;;10.79;100.00
68871;BME280;55906;52.278;6.808;2023-02-18T06:20:33;101505.53;;;10.80;100.00
68871;BME280;55906;52.278;6.808;2023-02-18T06:23:00;101495.84;;;10.79;100.00
68871;BME280;55906;52.278;6.808;2023-02-18T06:25:27;101511.72;;;10.82;100.00
68871;BME280;55906;52.278;6.808;2023-02-18T06:27:55;101506.31;;;10.78;100.00
68871;BME280;55906;52.278;6.808;2023-02-18T06:30:21;101509.84;;;10.78;100.00
68871;BME280;55906;52.278;6.808;2023-02-18T06:32:48;101508.00;;;10.76;100.00
68871;BME280;55906;52.278;6.808;2023-02-18T06:35:14;101499.38;;;10.80;100.00
68871;BME280;55906;52.278;6.808;2023-02-18T06:37:41;101500.16;;;10.77;100.00
68871;BME280;55906;52.278;6.808;2023-02-18T06:40:09;101495.72;;;10.76;100.00
68871;BME280;55906;52.278;6.808;2023-02-18T06:42:36;101513.25;;;10.76;100.00
68871;BME280;55906;52.278;6.808;2023-02-18T06:45:04;101501.03;;;10.78;100.00
68871;BME280;55906;52.278;6.808;2023-02-18T06:47:32;101505.47;;;10.79;100.00
68871;BME280;55906;52.278;6.808;2023-02-18T06:49:59;101502.69;;;10.74;100.00
68871;BME280;55906;52.278;6.808;2023-02-18T06:52:25;101506.31;;;10.78;100.00
68871;BME280;55906;52.278;6.808;2023-02-18T06:54:54;101501.03;;;10.78;100.00
68871;BME280;55906;52.278;6.808;2023-02-18T06:57:21;101506.19;;;10.75;100.00
68871;BME280;55906;52.278;6.808;2023-02-18T06:59:48;101497.47;;;10.76;100.00
68871;BME280;55906;52.278;6.808;2023-02-18T07:02:16;101512.34;;;10.75;100.00
68871;BME280;55906;52.278;6.808;2023-02-18T07:04:42;101503.56;;;10.75;100.00
68871;BME280;55906;52.278;6.808;2023-02-18T07:07:09;101500.81;;;10.72;100.00
68871;BME280;55906;52.278;6.808;2023-02-18T07:09:36;101498.25;;;10.73;100.00
68871;BME280;55906;52.278;6.808;2023-02-18T07:12:03;101490.25;;;10.70;100.00
68871;BME280;55906;52.278;6.808;2023-02-18T07:14:30;101502.63;;;10.73;100.00
68871;BME280;55906;52.278;6.808;2023-02-18T07:16:56;101507.00;;;10.72;100.00
68871;BME280;55906;52.278;6.808;2023-02-18T07:19:24;101490.34;;;10.73;100.00
68871;BME280;55906;52.278;6.808;2023-02-18T07:21:51;101492.03;;;10.71;100.00
68871;BME280;55906;52.278;6.808;2023-02-18T07:24:18;101492.94;;;10.72;100.00
68871;BME280;55906;52.278;6.808;2023-02-18T07:26:45;101496.34;;;10.69;100.00
68871;BME280;55906;52.278;6.808;2023-02-18T07:29:11;101496.34;;;10.69;100.00
68871;BME280;55906;52.278;6.808;2023-02-18T07:31:38;101500.88;;;10.73;100.00
68871;BME280;55906;52.278;6.808;2023-02-18T07:34:05;101476.88;;;10.64;100.00
68871;BME280;55906;52.278;6.808;2023-02-18T07:36:34;101502.41;;;10.67;100.00
68871;BME280;55906;52.278;6.808;2023-02-18T07:39:01;101491.81;;;10.65;100.00
68871;BME280;55906;52.278;6.808;2023-02-18T07:41:28;101498.88;;;10.66;100.00
68871;BME280;55906;52.278;6.808;2023-02-18T07:43:54;101489.19;;;10.65;100.00
68871;BME280;55906;52.278;6.808;2023-02-18T07:46:21;101488.47;;;10.69;100.00
68871;BME280;55906;52.278;6.808;2023-02-18T07:48:48;101503.41;;;10.70;100.00
68871;BME280;55906;52.278;6.808;2023-02-18T07:51:15;101492.00;;;10.70;100.00
68871;BME280;55906;52.278;6.808;2023-02-18T07:53:43;101490.19;;;10.69;100.00
68871;BME280;55906;52.278;6.808;2023-02-18T07:56:10;101495.50;;;10.70;100.00
68871;BME280;55906;52.278;6.808;2023-02-18T07:58:38;101499.00;;;10.69;100.00
68871;BME280;55906;52.278;6.808;2023-02-18T08:01:05;101508.56;;;10.67;100.00
68871;BME280;55906;52.278;6.808;2023-02-18T08:03:33;101502.41;;;10.67;100.00
68871;BME280;55906;52.278;6.808;2023-02-18T08:06:01;101499.81;;;10.68;100.00
68871;BME280;55906;52.278;6.808;2023-02-18T08:08:29;101503.25;;;10.66;100.00
68871;BME280;55906;52.278;6.808;2023-02-18T08:10:59;101495.19;;;10.61;100.00
68871;BME280;55906;52.278;6.808;2023-02-18T08:13:27;101495.13;;;10.60;100.00
68871;BME280;55906;52.278;6.808;2023-02-18T08:15:54;101499.50;;;10.59;100.00
68871;BME280;55906;52.278;6.808;2023-02-18T08:18:23;101496.81;;;10.57;100.00
68871;BME280;55906;52.278;6.808;2023-02-18T08:20:49;101496.75;;;10.56;100.00
68871;BME280;55906;52.278;6.808;2023-02-18T08:23:18;101494.13;;;10.56;100.00
68871;BME280;55906;52.278;6.808;2023-02-18T08:25:46;101480.25;;;10.60;100.00
68871;BME280;55906;52.278;6.808;2023-02-18T08:28:15;101493.34;;;10.58;100.00
68871;BME280;55906;52.278;6.808;2023-02-18T08:30:43;101479.28;;;10.58;100.00
68871;BME280;55906;52.278;6.808;2023-02-18T08:33:11;101497.66;;;10.56;100.00
68871;BME280;55906;52.278;6.808;2023-02-18T08:35:37;101505.59;;;10.58;100.00
68871;BME280;55906;52.278;6.808;2023-02-18T08:38:04;101490.66;;;10.57;100.00
68871;BME280;55906;52.278;6.808;2023-02-18T08:40:31;101489.75;;;10.56;100.00
68871;BME280;55906;52.278;6.808;2023-02-18T08:42:57;101501.22;;;10.58;100.00
68871;BME280;55906;52.278;6.808;2023-02-18T08:45:25;101500.28;;;10.56;100.00
68871;BME280;55906;52.278;6.808;2023-02-18T08:47:52;101506.38;;;10.55;100.00
68871;BME280;55906;52.278;6.808;2023-02-18T08:50:21;101502.03;;;10.56;100.00
68871;BME280;55906;52.278;6.808;2023-02-18T08:52:50;101510.69;;;10.53;100.00
68871;BME280;55906;52.278;6.808;2023-02-18T08:55:17;101495.69;;;10.51;100.00
68871;BME280;55906;52.278;6.808;2023-02-18T08:57:45;101498.31;;;10.51;100.00
68871;BME280;55906;52.278;6.808;2023-02-18T09:00:13;101507.97;;;10.50;100.00
68871;BME280;55906;52.278;6.808;2023-02-18T09:02:41;101498.09;;;10.45;100.00
68871;BME280;55906;52.278;6.808;2023-02-18T09:05:08;101491.38;;;10.53;100.00
68871;BME280;55906;52.278;6.808;2023-02-18T09:07:35;101488.75;;;10.53;100.00
68871;BME280;55906;52.278;6.808;2023-02-18T09:10:02;101512.50;;;10.54;100.00
68871;BME280;55906;52.278;6.808;2023-02-18T09:12:29;101490.53;;;10.54;100.00
68871;BME280;55906;52.278;6.808;2023-02-18T09:14:56;101495.75;;;10.52;100.00
68871;BME280;55906;52.278;6.808;2023-02-18T09:17:23;101509.63;;;10.48;100.00
68871;BME280;55906;52.278;6.808;2023-02-18T09:19:51;101485.91;;;10.47;100.00
68871;BME280;55906;52.278;6.808;2023-02-18T09:22:18;101509.59;;;10.47;99.46
68871;BME280;55906;52.278;6.808;2023-02-18T09:24:45;101496.38;;;10.45;99.31
68871;BME280;55906;52.278;6.808;2023-02-18T09:27:11;101505.16;;;10.46;97.92
68871;BME280;55906;52.278;6.808;2023-02-18T09:29:40;101509.41;;;10.42;98.41
68871;BME280;55906;52.278;6.808;2023-02-18T09:32:07;101510.94;;;10.37;98.56
68871;BME280;55906;52.278;6.808;2023-02-18T09:34:36;101509.34;;;10.41;98.48
68871;BME280;55906;52.278;6.808;2023-02-18T09:37:04;101531.94;;;10.36;98.75
68871;BME280;55906;52.278;6.808;2023-02-18T09:39:30;101499.25;;;10.29;98.73
68871;BME280;55906;52.278;6.808;2023-02-18T09:41:59;101513.41;;;10.33;99.40
68871;BME280;55906;52.278;6.808;2023-02-18T09:44:29;101536.72;;;10.23;99.38
68871;BME280;55906;52.278;6.808;2023-02-18T09:47:00;101517.53;;;10.26;99.20
68871;BME280;55906;52.278;6.808;2023-02-18T09:49:29;101508.75;;;10.25;99.80
68871;BME280;55906;52.278;6.808;2023-02-18T09:52:03;101516.25;;;10.16;100.00
68871;BME280;55906;52.278;6.808;2023-02-18T09:54:31;101516.16;;;10.13;100.00
68871;BME280;55906;52.278;6.808;2023-02-18T09:56:58;101549.25;;;10.08;100.00
68871;BME280;55906;52.278;6.808;2023-02-18T09:59:26;101512.34;;;10.05;100.00
68871;BME280;55906;52.278;6.808;2023-02-18T10:01:53;101529.47;;;9.95;100.00
68871;BME280;55906;52.278;6.808;2023-02-18T10:04:26;101517.31;;;9.98;100.00
68871;BME280;55906;52.278;6.808;2023-02-18T10:06:55;101517.84;;;9.89;100.00
68871;BME280;55906;52.278;6.808;2023-02-18T10:09:24;101516.22;;;9.92;100.00
68871;BME280;55906;52.278;6.808;2023-02-18T10:11:57;101516.16;;;9.91;100.00
68871;BME280;55906;52.278;6.808;2023-02-18T10:14:25;101519.44;;;9.85;100.00
68871;BME280;55906;52.278;6.808;2023-02-18T10:16:52;101547.59;;;9.88;100.00
68871;BME280;55906;52.278;6.808;2023-02-18T10:19:23;101522.97;;;9.86;100.00
68871;BME280;55906;52.278;6.808;2023-02-18T10:21:51;101535.22;;;9.85;100.00
68871;BME280;55906;52.278;6.808;2023-02-18T10:24:26;101522.13;;;9.87;100.00
68871;BME280;55906;52.278;6.808;2023-02-18T10:26:55;101541.19;;;9.81;100.00
68871;BME280;55906;52.278;6.808;2023-02-18T10:29:23;101529.78;;;9.81;100.00
68871;BME280;55906;52.278;6.808;2023-02-18T10:31:55;101557.13;;;9.86;100.00
68871;BME280;55906;52.278;6.808;2023-02-18T10:34:29;101537.00;;;9.86;100.00
68871;BME280;55906;52.278;6.808;2023-02-18T10:37:14;101552.00;;;9.89;100.00
68871;BME280;55906;52.278;6.808;2023-02-18T10:39:59;101553.78;;;9.90;100.00
68871;BME280;55906;52.278;6.808;2023-02-18T10:42:38;101545.78;;;9.87;100.00
68871;BME280;55906;52.278;6.808;2023-02-18T10:45:17;101558.22;;;9.91;100.00
68871;BME280;55906;52.278;6.808;2023-02-18T10:47:53;101562.69;;;9.93;100.00
68871;BME280;55906;52.278;6.808;2023-02-18T10:50:27;101603.78;;;9.91;100.00
68871;BME280;55906;52.278;6.808;2023-02-18T10:52:59;101560.91;;;9.92;100.00
68871;BME280;55906;52.278;6.808;2023-02-18T10:55:35;101545.31;;;9.97;100.00
68871;BME280;55906;52.278;6.808;2023-02-18T10:58:23;101561.91;;;9.96;100.00
68871;BME280;55906;52.278;6.808;2023-02-18T11:00:50;101574.16;;;9.95;100.00
68871;BME280;55906;52.278;6.808;2023-02-18T11:03:19;101562.09;;;10.01;100.00
68871;BME280;55906;52.278;6.808;2023-02-18T11:05:49;101550.56;;;9.97;100.00
68871;BME280;55906;52.278;6.808;2023-02-18T11:08:19;101565.38;;;9.95;100.00
68871;BME280;55906;52.278;6.808;2023-02-18T11:10:48;101560.97;;;9.94;100.00
68871;BME280;55906;52.278;6.808;2023-02-18T11:13:22;101554.03;;;9.96;100.00
68871;BME280;55906;52.278;6.808;2023-02-18T11:15:56;101548.06;;;10.00;100.00
68871;BME280;55906;52.278;6.808;2023-02-18T11:18:29;101549.97;;;10.04;100.00
68871;BME280;55906;52.278;6.808;2023-02-18T11:21:00;101558.88;;;10.08;100.00
68871;BME280;55906;52.278;6.808;2023-02-18T11:23:27;101545.84;;;10.11;100.00
68871;BME280;55906;52.278;6.808;2023-02-18T11:25:59;101560.28;;;10.20;100.00
68871;BME280;55906;52.278;6.808;2023-02-18T11:28:39;101553.47;;;10.25;100.00
68871;BME280;55906;52.278;6.808;2023-02-18T11:31:08;101539.47;;;10.26;100.00
68871;BME280;55906;52.278;6.808;2023-02-18T11:33:39;101542.28;;;10.31;100.00
68871;BME280;55906;52.278;6.808;2023-02-18T11:36:16;101530.19;;;10.36;100.00
68871;BME280;55906;52.278;6.808;2023-02-18T11:38:49;101553.81;;;10.35;100.00
68871;BME280;55906;52.278;6.808;2023-02-18T11:41:18;101536.56;;;10.41;100.00
68871;BME280;55906;52.278;6.808;2023-02-18T11:43:49;101535.84;;;10.45;99.64
68871;BME280;55906;52.278;6.808;2023-02-18T11:46:19;101528.94;;;10.49;99.61
68871;BME280;55906;52.278;6.808;2023-02-18T11:48:46;101543.00;;;10.49;99.28
68871;BME280;55906;52.278;6.808;2023-02-18T11:51:16;101557.88;;;10.49;99.37
68871;BME280;55906;52.278;6.808;2023-02-18T11:53:55;101551.91;;;10.53;98.91
68871;BME280;55906;52.278;6.808;2023-02-18T11:56:26;101553.69;;;10.54;99.22
68871;BME280;55906;52.278;6.808;2023-02-18T11:58:54;101551.09;;;10.55;99.19
68871;BME280;55906;52.278;6.808;2023-02-18T12:01:29;101557.16;;;10.53;99.02
68871;BME280;55906;52.278;6.808;2023-02-18T12:03:59;101536.06;;;10.51;98.50
68871;BME280;55906;52.278;6.808;2023-02-18T12:06:30;101551.09;;;10.55;99.09
68871;BME280;55906;52.278;6.808;2023-02-18T12:09:03;101549.16;;;10.50;98.58
68871;BME280;55906;52.278;6.808;2023-02-18T12:11:33;101558.94;;;10.54;98.63
68871;BME280;55906;52.278;6.808;2023-02-18T12:14:08;101548.53;;;10.57;98.92
68871;BME280;55906;52.278;6.808;2023-02-18T12:16:47;101543.44;;;10.62;98.68
68871;BME280;55906;52.278;6.808;2023-02-18T12:19:32;101539.06;;;10.62;98.29
68871;BME280;55906;52.278;6.808;2023-02-18T12:22:06;101552.34;;;10.65;97.60
68871;BME280;55906;52.278;6.808;2023-02-18T12:24:47;101540.13;;;10.67;97.84
68871;BME280;55906;52.278;6.808;2023-02-18T12:27:20;101544.66;;;10.71;97.69
68871;BME280;55906;52.278;6.808;2023-02-18T12:30:02;101545.63;;;10.73;97.77
68871;BME280;55906;52.278;6.808;2023-02-18T12:32:40;101549.19;;;10.75;97.10
68871;BME280;55906;52.278;6.808;2023-02-18T12:35:30;101554.75;;;10.83;97.11
68871;BME280;55906;52.278;6.808;2023-02-18T12:38:15;101550.47;;;10.86;96.13
68871;BME280;55906;52.278;6.808;2023-02-18T12:40:55;101558.50;;;10.89;96.94
68871;BME280;55906;52.278;6.808;2023-02-18T12:43:34;101549.00;;;10.95;96.49
68871;BME280;55906;52.278;6.808;2023-02-18T12:46:32;101553.53;;;10.99;96.25
68871;BME280;55906;52.278;6.808;2023-02-18T12:49:18;101554.50;;;11.01;97.15
68871;BME280;55906;52.278;6.808;2023-02-18T12:52:01;101552.88;;;11.04;96.65
68871;BME280;55906;52.278;6.808;2023-02-18T12:54:56;101553.88;;;11.08;96.95
68871;BME280;55906;52.278;6.808;2023-02-18T12:57:38;101565.56;;;11.16;96.61
68871;BME280;55906;52.278;6.808;2023-02-18T13:03:34;101560.59;;;11.25;95.84
68871;BME280;55906;52.278;6.808;2023-02-18T13:06:14;101552.13;;;11.34;95.80